Time;durP1;ratioP1;P1;durP2;ratioP2;P2;SDS_P1;SDS_P2;PMS_P1;PMS_P2;Temp;Humidity;BMP_temperature;BMP_pressure;BME280_temperature;BME280_humidity;BME280_pressure;Samples;Min_cycle;Max_cycle;Signal;HPM_P1;HPM_P2
2021/11/23 00:01:25;;;;;;;34.78;18.65;;;;;;;6.02;100.00;100956.48;1759084;80;21028;-68
2021/11/23 00:03:52;;;;;;;46.13;21.57;;;;;;;6.00;100.00;100960.91;1753151;80;21092;-57
2021/11/23 00:06:20;;;;;;;43.75;21.50;;;;;;;5.99;100.00;100956.48;1755844;80;21150;-58
2021/11/23 00:08:47;;;;;;;47.40;23.40;;;;;;;6.01;100.00;100950.72;1761964;80;22242;-58
2021/11/23 00:11:14;;;;;;;48.95;21.33;;;;;;;6.01;100.00;100950.72;1793522;79;20962;-58
2021/11/23 00:13:42;;;;;;;42.15;20.92;;;;;;;6.01;100.00;100956.05;1785119;79;21041;-57
2021/11/23 00:16:10;;;;;;;40.92;20.32;;;;;;;6.03;100.00;100960.03;1780777;79;21089;-58
2021/11/23 00:18:38;;;;;;;46.15;21.85;;;;;;;6.06;100.00;100959.09;1778522;79;20992;-57
2021/11/23 00:21:05;;;;;;;42.88;21.05;;;;;;;6.09;100.00;100964.41;1759265;79;21108;-57
2021/11/23 00:23:33;;;;;;;43.87;22.07;;;;;;;6.12;100.00;100963.03;1739242;81;21538;-57
2021/11/23 00:26:00;;;;;;;49.88;27.80;;;;;;;6.12;100.00;100962.56;1759856;80;21051;-57
2021/11/23 00:28:27;;;;;;;52.90;24.75;;;;;;;6.14;100.00;100962.56;1763368;80;21055;-58
2021/11/23 00:30:54;;;;;;;44.25;22.87;;;;;;;6.15;100.00;100964.31;1773027;80;21170;-68
2021/11/23 00:33:21;;;;;;;44.25;23.20;;;;;;;6.15;100.00;100967.84;1755799;80;21406;-68
2021/11/23 00:35:49;;;;;;;48.92;26.23;;;;;;;6.15;100.00;100970.50;1771501;80;21517;-58
2021/11/23 00:38:16;;;;;;;54.42;25.05;;;;;;;6.14;100.00;100966.55;1765006;80;21043;-68
2021/11/23 00:40:43;;;;;;;50.90;26.35;;;;;;;6.15;100.00;100965.65;1756310;80;21092;-68
2021/11/23 00:43:11;;;;;;;47.30;22.22;;;;;;;6.15;100.00;100970.97;1769526;80;21889;-68
2021/11/23 00:45:38;;;;;;;40.78;19.50;;;;;;;6.16;100.00;100975.39;1795756;79;21036;-68
2021/11/23 00:48:07;;;;;;;41.18;18.67;;;;;;;6.16;100.00;100978.06;1760341;80;21392;-68
2021/11/23 00:50:34;;;;;;;39.70;19.90;;;;;;;6.18;100.00;100972.26;1770220;80;21087;-69
2021/11/23 00:53:02;;;;;;;38.53;18.98;;;;;;;6.21;100.00;100964.23;1764818;80;21044;-68
2021/11/23 00:55:31;;;;;;;32.42;18.35;;;;;;;6.24;100.00;100960.19;1771673;80;21815;-68
2021/11/23 00:57:58;;;;;;;44.25;19.67;;;;;;;6.31;100.00;100955.66;1780929;79;21101;-69
2021/11/23 01:00:25;;;;;;;44.65;19.20;;;;;;;6.36;100.00;100959.61;1756503;79;21612;-68
2021/11/23 01:02:52;;;;;;;46.18;17.92;;;;;;;6.36;100.00;100964.93;1783912;79;21043;-67
2021/11/23 01:05:19;;;;;;;40.43;18.02;;;;;;;6.38;100.00;100965.78;1783805;79;20991;-68
2021/11/23 01:07:46;;;;;;;37.63;17.35;;;;;;;6.37;100.00;100974.21;1759609;80;21123;-57
2021/11/23 01:10:13;;;;;;;40.60;17.45;;;;;;;6.36;100.00;100967.59;1794481;79;20961;-57
2021/11/23 01:12:40;;;;;;;43.00;16.55;;;;;;;6.35;100.00;100954.72;1760915;80;21050;-68
2021/11/23 01:15:08;;;;;;;45.25;16.90;;;;;;;6.37;100.00;100966.69;1760413;80;21116;-68
2021/11/23 01:17:35;;;;;;;54.35;17.15;;;;;;;6.35;100.00;100961.84;1768496;79;21339;-68
2021/11/23 01:20:04;;;;;;;52.25;17.02;;;;;;;6.38;100.00;100974.64;1765927;80;21932;-68
2021/11/23 01:22:31;;;;;;;43.58;16.95;;;;;;;6.44;100.00;100975.02;1763848;80;21066;-70
2021/11/23 01:24:59;;;;;;;35.15;16.45;;;;;;;6.44;100.00;100977.24;1779824;79;21084;-68
2021/11/23 01:27:25;;;;;;;39.27;18.62;;;;;;;6.43;100.00;100979.91;1781122;79;21013;-57
2021/11/23 01:29:52;;;;;;;31.80;17.10;;;;;;;6.40;100.00;100983.48;1750812;80;21041;-58
2021/11/23 01:32:19;;;;;;;36.90;17.55;;;;;;;6.40;100.00;100985.28;1768878;80;21152;-58
2021/11/23 01:34:47;;;;;;;41.02;18.90;;;;;;;6.37;100.00;100991.52;1768824;79;21074;-57
2021/11/23 01:37:14;;;;;;;42.13;20.15;;;;;;;6.37;100.00;100994.66;1740317;80;21446;-57
2021/11/23 01:39:41;;;;;;;39.78;21.37;;;;;;;6.36;100.00;100994.23;1776226;79;21064;-58
2021/11/23 01:42:08;;;;;;;47.23;23.67;;;;;;;6.34;100.00;100994.70;1762029;80;21450;-57
2021/11/23 01:44:35;;;;;;;47.62;22.82;;;;;;;6.34;100.00;101004.02;1767628;80;21885;-57
2021/11/23 01:47:02;;;;;;;42.17;22.20;;;;;;;6.31;100.00;101006.26;1784267;79;21020;-57
2021/11/23 01:49:28;;;;;;;46.65;22.90;;;;;;;6.27;100.00;101002.75;1745772;80;21715;-57
2021/11/23 01:51:55;;;;;;;42.88;22.05;;;;;;;6.29;100.00;101002.27;1775338;79;21044;-57
2021/11/23 01:54:22;;;;;;;40.83;21.20;;;;;;;6.30;100.00;101000.51;1782820;79;21039;-57
2021/11/23 01:56:49;;;;;;;38.88;18.92;;;;;;;6.34;100.00;101008.02;1767467;79;21856;-57
2021/11/23 01:59:16;;;;;;;37.10;19.95;;;;;;;6.36;100.00;100998.22;1777864;79;20972;-57
2021/11/23 02:01:46;;;;;;;34.53;19.25;;;;;;;6.34;100.00;101001.36;1742537;80;21320;-58
2021/11/23 02:04:13;;;;;;;36.55;18.35;;;;;;;6.33;100.00;101000.93;1735428;81;20950;-57
2021/11/23 02:06:40;;;;;;;37.65;20.65;;;;;;;6.27;100.00;101001.41;1749465;80;21218;-57
2021/11/23 02:09:07;;;;;;;46.42;21.57;;;;;;;6.21;100.00;100998.84;1764620;80;21100;-57
2021/11/23 02:11:34;;;;;;;39.50;20.27;;;;;;;6.19;100.00;101002.41;1752693;80;22172;-57
2021/11/23 02:14:03;;;;;;;40.30;19.95;;;;;;;6.17;100.00;101007.77;1746357;80;21096;-68
2021/11/23 02:16:32;;;;;;;33.00;17.75;;;;;;;6.14;100.00;100995.38;1762984;81;21076;-68
2021/11/23 02:19:00;;;;;;;36.20;20.92;;;;;;;6.11;100.00;100999.87;1739359;82;21080;-68
2021/11/23 02:21:27;;;;;;;41.60;19.37;;;;;;;6.09;100.00;101005.20;1738843;81;21312;-68
2021/11/23 02:23:54;;;;;;;39.48;19.67;;;;;;;6.09;100.00;101001.67;1739003;81;21056;-67
2021/11/23 02:26:21;;;;;;;33.58;17.52;;;;;;;6.11;100.00;101008.72;1739264;82;21053;-68
2021/11/23 02:28:48;;;;;;;39.78;18.02;;;;;;;6.10;100.00;101004.77;1738773;82;21652;-68
2021/11/23 02:31:15;;;;;;;37.35;17.45;;;;;;;6.08;100.00;101008.77;1739250;80;21129;-68
2021/11/23 02:33:42;;;;;;;32.23;16.55;;;;;;;6.09;100.00;101002.54;1738681;82;21948;-68
2021/11/23 02:36:10;;;;;;;40.98;16.37;;;;;;;6.08;100.00;101003.88;1739182;81;21002;-68
2021/11/23 02:38:38;;;;;;;27.93;15.05;;;;;;;6.08;100.00;101013.19;1739318;82;21097;-68
2021/11/23 02:41:09;;;;;;;33.33;15.10;;;;;;;6.05;100.00;101017.23;1739734;80;21016;-68
2021/11/23 02:43:36;;;;;;;34.25;16.55;;;;;;;5.98;100.00;101011.95;1739571;82;21048;-68
2021/11/23 02:46:04;;;;;;;29.65;14.85;;;;;;;5.95;100.00;101017.75;1742081;80;21795;-68
2021/11/23 02:48:32;;;;;;;32.23;14.93;;;;;;;5.90;100.00;101029.80;1749944;82;20983;-69
2021/11/23 02:53:28;;;;;;;27.22;14.45;;;;;;;5.81;100.00;101026.79;1747407;82;21107;-69
2021/11/23 02:55:56;;;;;;;34.53;16.52;;;;;;;5.80;100.00;101018.38;1747974;81;22228;-68
2021/11/23 02:58:23;;;;;;;27.17;14.68;;;;;;;5.78;100.00;101024.59;1747958;82;21222;-68
2021/11/23 03:00:50;;;;;;;31.62;15.20;;;;;;;5.78;100.00;101027.26;1747405;80;21612;-68
2021/11/23 03:03:17;;;;;;;40.10;15.05;;;;;;;5.78;100.00;101021.94;1749170;82;21426;-68
2021/11/23 03:05:44;;;;;;;33.48;14.98;;;;;;;5.74;100.00;101025.97;1748865;81;21048;-68
2021/11/23 03:08:11;;;;;;;36.63;16.35;;;;;;;5.73;100.00;101028.20;1775202;80;21084;-68
2021/11/23 03:10:39;;;;;;;33.15;16.10;;;;;;;5.71;100.00;101032.66;1778585;80;21130;-69
2021/11/23 03:13:06;;;;;;;30.88;14.98;;;;;;;5.73;100.00;101037.51;1749006;82;21035;-68
2021/11/23 03:15:34;;;;;;;28.32;14.87;;;;;;;5.78;100.00;101037.47;1777035;80;20933;-68
2021/11/23 03:18:02;;;;;;;34.23;17.05;;;;;;;5.80;100.00;101034.77;1749247;81;21048;-67
2021/11/23 03:20:29;;;;;;;42.08;16.40;;;;;;;5.79;100.00;101038.33;1758646;80;21016;-68
2021/11/23 03:22:57;;;;;;;33.75;16.55;;;;;;;5.81;100.00;101040.09;1771662;80;21150;-68
2021/11/23 03:25:25;;;;;;;32.95;16.02;;;;;;;5.84;100.00;101047.14;1749479;81;20889;-68
2021/11/23 03:27:52;;;;;;;37.78;16.32;;;;;;;5.85;100.00;101058.22;1747542;81;21725;-68
2021/11/23 03:30:23;;;;;;;41.65;16.05;;;;;;;5.86;100.00;101053.36;1747874;81;21056;-68
2021/11/23 03:32:53;;;;;;;35.73;15.28;;;;;;;5.85;100.00;101052.89;1748737;81;20991;-69
2021/11/23 03:35:24;;;;;;;31.42;15.68;;;;;;;5.84;100.00;101052.47;1748798;82;21858;-57
2021/11/23 03:37:55;;;;;;;36.80;15.60;;;;;;;5.83;100.00;101059.58;1738456;81;21080;-58
2021/11/23 03:40:23;;;;;;;40.90;16.12;;;;;;;5.84;100.00;101053.80;1779742;80;21044;-57
2021/11/23 03:42:50;;;;;;;41.68;15.35;;;;;;;5.86;100.00;101061.34;1747222;82;21032;-58
2021/11/23 03:45:18;;;;;;;36.10;15.90;;;;;;;5.86;100.00;101058.68;1779645;80;20913;-57
2021/11/23 03:47:47;;;;;;;38.80;15.85;;;;;;;5.91;100.00;101060.84;1773682;80;21802;-57
2021/11/23 03:50:16;;;;;;;47.03;16.75;;;;;;;5.95;100.00;101066.55;1809179;79;21032;-58
2021/11/23 03:52:44;;;;;;;51.02;15.58;;;;;;;5.98;100.00;101062.52;1777958;80;21060;-57
2021/11/23 03:55:14;;;;;;;44.45;14.38;;;;;;;6.00;100.00;101070.04;1777840;80;21075;-57
2021/11/23 03:57:42;;;;;;;35.50;14.78;;;;;;;6.01;100.00;101065.19;1776718;80;21170;-58
2021/11/23 04:00:11;;;;;;;31.87;14.35;;;;;;;6.04;100.00;101068.70;1774497;80;21128;-58
2021/11/23 04:02:42;;;;;;;32.25;15.68;;;;;;;6.04;100.00;101068.70;1777616;80;21000;-67
2021/11/23 04:05:09;;;;;;;38.17;13.28;;;;;;;6.04;100.00;101066.05;1795057;79;20988;-58
2021/11/23 04:07:40;;;;;;;29.50;12.98;;;;;;;6.04;100.00;101070.03;1776374;80;21088;-57
2021/11/23 04:10:09;;;;;;;32.13;13.32;;;;;;;6.05;100.00;101073.12;1776630;80;21108;-57
2021/11/23 04:12:36;;;;;;;31.00;12.28;;;;;;;6.04;100.00;101065.61;1777771;80;21732;-58
2021/11/23 04:15:06;;;;;;;30.50;12.70;;;;;;;6.09;100.00;101061.11;1763218;80;21061;-59
2021/11/23 04:17:35;;;;;;;26.23;12.70;;;;;;;6.13;100.00;101069.95;1777012;80;20971;-58
2021/11/23 04:20:05;;;;;;;23.98;11.65;;;;;;;6.14;100.00;101070.38;1776845;80;21052;-59
2021/11/23 04:22:34;;;;;;;26.20;11.88;;;;;;;6.17;100.00;101069.02;1775957;80;21074;-58
2021/11/23 04:25:01;;;;;;;26.77;11.55;;;;;;;6.18;100.00;101063.22;1776800;80;21134;-58
2021/11/23 04:27:28;;;;;;;26.68;11.33;;;;;;;6.22;100.00;101066.30;1745624;82;21015;-58
2021/11/23 04:29:55;;;;;;;23.35;12.03;;;;;;;6.20;100.00;101062.31;1782601;80;21109;-58
2021/11/23 04:32:23;;;;;;;23.57;11.88;;;;;;;6.19;99.94;101068.97;1777648;79;21379;-58
2021/11/23 04:34:50;;;;;;;26.55;11.40;;;;;;;6.15;99.64;101072.14;1755690;80;21311;-57
2021/11/23 04:37:17;;;;;;;19.77;10.10;;;;;;;6.11;99.74;101071.75;1775648;80;21346;-58
2021/11/23 04:39:45;;;;;;;19.30;10.75;;;;;;;6.09;99.72;101076.22;1777524;80;21011;-58
2021/11/23 04:42:11;;;;;;;21.57;11.35;;;;;;;6.07;99.93;101083.31;1778110;80;21039;-58
2021/11/23 04:44:38;;;;;;;22.13;11.38;;;;;;;6.07;99.92;101087.30;1765498;80;21040;-58
2021/11/23 04:47:05;;;;;;;24.77;10.38;;;;;;;6.07;100.00;101089.97;1771724;80;21083;-58
2021/11/23 04:49:33;;;;;;;19.45;10.25;;;;;;;6.08;100.00;101090.39;1766147;81;21146;-57
2021/11/23 04:51:59;;;;;;;23.30;11.15;;;;;;;6.10;99.96;101095.28;1766655;79;20981;-57
2021/11/23 04:54:26;;;;;;;24.80;10.03;;;;;;;6.07;99.93;101094.86;1764194;79;20907;-58
2021/11/23 04:56:54;;;;;;;19.45;10.05;;;;;;;6.08;100.00;101094.39;1754581;81;21714;-56
2021/11/23 04:59:21;;;;;;;26.37;10.32;;;;;;;6.09;99.87;101097.52;1754511;81;21457;-57
2021/11/23 05:01:50;;;;;;;24.23;10.65;;;;;;;6.08;100.00;101100.61;1754095;81;21115;-58
2021/11/23 05:04:17;;;;;;;25.15;10.00;;;;;;;6.09;100.00;101108.16;1756632;80;20928;-57
2021/11/23 05:06:44;;;;;;;22.00;9.88;;;;;;;6.10;100.00;101108.13;1756067;81;21091;-57
2021/11/23 05:09:11;;;;;;;15.35;8.73;;;;;;;6.13;100.00;101100.56;1756019;81;21055;-59
2021/11/23 05:11:40;;;;;;;15.38;8.50;;;;;;;6.13;99.80;101103.23;1755629;81;21044;-58
2021/11/23 05:14:07;;;;;;;13.75;7.65;;;;;;;6.13;99.70;101108.55;1759992;80;21925;-59
2021/11/23 05:16:35;;;;;;;20.12;8.48;;;;;;;6.13;99.66;101103.23;1785870;80;21032;-57
2021/11/23 05:19:02;;;;;;;18.57;7.60;;;;;;;6.15;99.80;101110.75;1785495;80;21103;-57
2021/11/23 05:21:30;;;;;;;15.65;7.42;;;;;;;6.19;99.57;101111.14;1786644;80;21471;-58
2021/11/23 05:23:57;;;;;;;14.98;7.30;;;;;;;6.20;99.42;101112.91;1786470;80;21533;-58
2021/11/23 05:26:24;;;;;;;13.43;6.60;;;;;;;6.21;99.08;101116.00;1786928;80;21173;-58
2021/11/23 05:28:51;;;;;;;16.00;6.97;;;;;;;6.24;98.96;101117.76;1764798;80;21119;-57
2021/11/23 05:31:18;;;;;;;17.77;7.58;;;;;;;6.27;98.78;101121.25;1755002;80;21032;-57
2021/11/23 05:33:45;;;;;;;15.65;7.17;;;;;;;6.29;98.60;101119.45;1733276;82;21080;-57
2021/11/23 05:36:12;;;;;;;28.15;7.58;;;;;;;6.32;98.44;101124.34;1765882;80;21056;-58
2021/11/23 05:38:39;;;;;;;13.65;6.85;;;;;;;6.32;98.26;101127.00;1753192;81;21154;-69
2021/11/23 05:41:06;;;;;;;14.00;7.20;;;;;;;6.33;98.34;101123.44;1755186;81;20991;-68
2021/11/23 05:43:33;;;;;;;12.58;6.50;;;;;;;6.38;98.35;101136.23;1741038;80;20977;-68
2021/11/23 05:46:00;;;;;;;12.63;6.30;;;;;;;6.39;97.84;101138.87;1765961;80;21080;-68
2021/11/23 05:48:27;;;;;;;11.43;6.70;;;;;;;6.40;97.50;101131.77;1797385;79;21367;-69
2021/11/23 05:50:54;;;;;;;10.30;5.90;;;;;;;6.42;97.29;101136.63;1789690;79;21094;-57
2021/11/23 05:53:21;;;;;;;9.35;5.70;;;;;;;6.43;96.56;101151.71;1765454;81;20995;-57
2021/11/23 05:55:48;;;;;;;14.03;5.55;;;;;;;6.43;95.85;101151.71;1764864;80;21105;-58
2021/11/23 05:58:15;;;;;;;9.60;5.28;;;;;;;6.45;95.71;101151.24;1765136;80;21074;-57
2021/11/23 06:00:42;;;;;;;10.10;5.53;;;;;;;6.51;95.15;101158.29;1759903;81;21661;-57
2021/11/23 06:03:10;;;;;;;8.55;5.62;;;;;;;6.55;94.69;101163.58;1760966;80;21569;-59
2021/11/23 06:05:38;;;;;;;9.43;5.60;;;;;;;6.63;94.67;101165.25;1756844;81;21100;-57
2021/11/23 06:08:05;;;;;;;7.85;5.30;;;;;;;6.68;93.75;101168.73;1765660;81;21421;-58
2021/11/23 06:10:32;;;;;;;8.35;5.05;;;;;;;6.72;92.78;101179.79;1765384;81;21371;-58
2021/11/23 06:13:00;;;;;;;8.08;4.95;;;;;;;6.73;91.38;101185.55;1757118;81;21061;-57
2021/11/23 06:15:30;;;;;;;10.48;5.70;;;;;;;6.75;90.77;101187.77;1760363;81;21333;-57
2021/11/23 06:18:03;;;;;;;7.33;5.20;;;;;;;6.79;90.84;101190.83;1738609;79;21036;-58
2021/11/23 06:20:30;;;;;;;10.23;5.62;;;;;;;6.85;89.61;101204.07;1733980;82;21497;-57
2021/11/23 06:22:59;;;;;;;8.80;5.08;;;;;;;6.85;88.73;101200.07;1765831;80;21102;-57
2021/11/23 06:25:26;;;;;;;7.95;4.92;;;;;;;6.84;87.67;101199.64;1775107;80;20957;-58
2021/11/23 06:27:53;;;;;;;8.95;5.12;;;;;;;6.85;87.51;101200.07;1739505;82;21529;-58
2021/11/23 06:30:21;;;;;;;6.22;4.60;;;;;;;6.87;87.09;101197.41;1739826;81;20930;-59
2021/11/23 06:32:48;;;;;;;7.12;4.40;;;;;;;6.87;86.31;101215.59;1753098;80;21478;-59
2021/11/23 06:35:15;;;;;;;5.62;4.17;;;;;;;6.85;85.07;101214.73;1782970;79;21031;-57
2021/11/23 06:37:42;;;;;;;7.60;4.58;;;;;;;6.82;84.47;101212.11;1742852;80;21836;-59
2021/11/23 06:40:10;;;;;;;6.33;4.10;;;;;;;6.80;84.79;101212.58;1745350;81;21660;-59
2021/11/23 06:42:37;;;;;;;5.47;4.10;;;;;;;6.81;84.48;101218.34;1748045;81;21100;-58
2021/11/23 06:45:07;;;;;;;6.00;3.80;;;;;;;6.82;84.50;101216.11;1764392;80;21108;-61
2021/11/23 06:47:34;;;;;;;6.92;3.70;;;;;;;6.84;83.25;101212.97;1777371;79;21103;-58
2021/11/23 06:50:01;;;;;;;7.72;3.85;;;;;;;6.79;83.24;101212.15;1761657;79;21300;-59
2021/11/23 06:52:28;;;;;;;5.60;3.25;;;;;;;6.75;82.75;101221.09;1776670;79;21099;-58
2021/11/23 06:54:55;;;;;;;5.33;3.20;;;;;;;6.72;82.99;101221.09;1786536;79;21127;-59
2021/11/23 06:57:23;;;;;;;7.97;3.50;;;;;;;6.71;82.39;101212.67;1785130;78;21474;-60
2021/11/23 06:59:50;;;;;;;6.05;3.62;;;;;;;6.70;82.46;101214.91;1783226;78;21674;-58
2021/11/23 07:02:17;;;;;;;5.55;3.40;;;;;;;6.70;82.58;101212.23;1781989;79;20920;-58
2021/11/23 07:04:44;;;;;;;5.33;3.30;;;;;;;6.76;83.06;101211.29;1760376;79;21152;-58
2021/11/23 07:07:12;;;;;;;6.72;3.17;;;;;;;6.87;82.94;101219.59;1769649;79;21091;-58
2021/11/23 07:09:40;;;;;;;5.20;3.35;;;;;;;6.94;82.47;101212.84;1760070;80;21180;-59
2021/11/23 07:12:09;;;;;;;6.85;3.00;;;;;;;6.99;82.52;101211.89;1755375;81;21048;-60
2021/11/23 07:14:37;;;;;;;4.08;2.70;;;;;;;7.09;82.46;101216.66;1735325;80;21106;-61
2021/11/23 07:17:05;;;;;;;8.05;3.22;;;;;;;7.15;82.20;101208.56;1770987;80;21811;-60
2021/11/23 07:19:32;;;;;;;4.55;3.45;;;;;;;7.24;82.33;101212.03;1779199;79;21430;-58
2021/11/23 07:21:59;;;;;;;6.45;3.58;;;;;;;7.31;81.85;101209.70;1767770;80;21103;-59
2021/11/23 07:24:27;;;;;;;4.37;3.00;;;;;;;7.35;81.77;101216.75;1773474;80;21461;-60
2021/11/23 07:26:55;;;;;;;5.83;3.20;;;;;;;7.37;81.46;101224.27;1763713;79;21082;-59
2021/11/23 07:29:22;;;;;;;7.95;3.62;;;;;;;7.35;80.44;101223.41;1768795;79;22025;-59
2021/11/23 07:31:49;;;;;;;5.00;2.70;;;;;;;7.23;80.42;101227.14;1765421;79;21206;-59
2021/11/23 07:34:16;;;;;;;5.08;2.80;;;;;;;7.14;80.75;101222.80;1767493;79;21520;-60
2021/11/23 07:36:45;;;;;;;5.47;3.05;;;;;;;7.11;81.35;101223.31;1768874;79;21063;-59
2021/11/23 07:39:12;;;;;;;7.72;3.08;;;;;;;7.10;81.46;101234.42;1766633;79;21118;-58
2021/11/23 07:41:40;;;;;;;5.33;2.72;;;;;;;7.08;81.43;101226.89;1764208;79;21202;-59
2021/11/23 07:44:10;;;;;;;6.03;2.83;;;;;;;7.06;81.69;101227.37;1765650;78;21061;-59
2021/11/23 07:46:37;;;;;;;4.67;2.95;;;;;;;7.08;82.03;101232.69;1761966;78;21127;-61
2021/11/23 07:49:05;;;;;;;4.95;2.90;;;;;;;7.16;81.97;101232.99;1745743;79;21781;-58
2021/11/23 07:51:33;;;;;;;7.50;3.00;;;;;;;7.21;81.88;101234.28;1753474;79;21092;-59
2021/11/23 07:54:00;;;;;;;7.37;3.30;;;;;;;7.25;81.87;101236.47;1765366;79;21432;-59
2021/11/23 07:56:28;;;;;;;4.05;2.98;;;;;;;7.32;81.87;101246.14;1765026;79;21457;-59
2021/11/23 07:58:54;;;;;;;5.12;3.20;;;;;;;7.38;81.41;101244.71;1766686;79;21552;-59
2021/11/23 08:01:21;;;;;;;5.92;3.05;;;;;;;7.41;80.61;101252.70;1760255;79;21622;-58
2021/11/23 08:03:48;;;;;;;6.15;3.52;;;;;;;7.38;80.74;101254.05;1763985;79;21075;-58
2021/11/23 08:06:16;;;;;;;5.97;3.27;;;;;;;7.38;80.70;101255.85;1764442;79;21711;-59
2021/11/23 08:08:43;;;;;;;5.75;3.05;;;;;;;7.36;80.85;101251.86;1768085;79;21075;-59
2021/11/23 08:11:10;;;;;;;8.28;2.92;;;;;;;7.41;81.16;101255.37;1766875;79;20940;-59
2021/11/23 08:13:38;;;;;;;4.17;2.72;;;;;;;7.50;81.00;101246.80;1769372;79;21074;-59
2021/11/23 08:16:05;;;;;;;5.17;2.90;;;;;;;7.59;80.02;101257.33;1766414;79;21103;-58
2021/11/23 08:18:34;;;;;;;4.78;3.17;;;;;;;7.64;79.27;101256.83;1768011;79;21653;-58
2021/11/23 08:21:04;;;;;;;9.08;3.65;;;;;;;7.66;78.63;101271.47;1768614;79;21122;-58
2021/11/23 08:23:31;;;;;;;5.72;3.35;;;;;;;7.59;78.65;101264.89;1763003;79;21097;-58
2021/11/23 08:26:00;;;;;;;4.35;3.02;;;;;;;7.59;78.45;101272.00;1774404;79;21068;-58
2021/11/23 08:28:27;;;;;;;5.17;3.47;;;;;;;7.55;78.52;101263.61;1778989;79;21332;-59
2021/11/23 08:30:56;;;;;;;8.20;3.40;;;;;;;7.54;78.56;101269.86;1761253;80;22461;-58
2021/11/23 08:33:24;;;;;;;5.87;3.20;;;;;;;7.54;78.83;101264.52;1766614;80;21087;-59
2021/11/23 08:35:58;;;;;;;6.77;3.13;;;;;;;7.54;79.33;101267.19;1763946;79;21061;-58
2021/11/23 08:38:29;;;;;;;5.30;3.30;;;;;;;7.58;80.09;101271.57;1778265;78;21037;-58
2021/11/23 08:40:57;;;;;;;4.95;3.12;;;;;;;7.63;79.62;101272.41;1775565;79;21600;-59
2021/11/23 08:43:29;;;;;;;8.63;3.75;;;;;;;7.57;77.91;101280.05;1755506;79;21102;-59
2021/11/23 08:45:57;;;;;;;6.05;3.75;;;;;;;7.44;78.36;101274.00;1776281;79;21493;-59
2021/11/23 08:48:26;;;;;;;5.05;2.90;;;;;;;7.40;79.08;101274.05;1753421;80;21084;-58
2021/11/23 08:50:53;;;;;;;5.55;3.40;;;;;;;7.40;78.79;101281.59;1758536;80;21473;-59
2021/11/23 08:53:21;;;;;;;6.55;3.67;;;;;;;7.37;78.72;101269.62;1754016;80;21077;-60
2021/11/23 08:55:48;;;;;;;6.50;3.33;;;;;;;7.33;78.21;101279.91;1755460;80;21573;-60
2021/11/23 08:58:18;;;;;;;5.67;3.70;;;;;;;7.29;78.65;101274.19;1750371;80;21619;-59
2021/11/23 09:00:57;;;;;;;5.28;3.33;;;;;;;7.30;79.36;101278.19;1741964;79;21276;-59
2021/11/23 09:03:25;;;;;;;6.58;3.37;;;;;;;7.34;78.78;101285.67;1738465;80;21084;-58
2021/11/23 09:05:53;;;;;;;8.93;3.95;;;;;;;7.33;78.63;101283.91;1750302;80;21441;-69
2021/11/23 09:08:20;;;;;;;5.50;3.72;;;;;;;7.28;78.77;101288.44;1751825;80;21545;-69
2021/11/23 09:10:48;;;;;;;5.53;3.40;;;;;;;7.21;79.14;101289.42;1750339;80;21090;-67
2021/11/23 09:13:15;;;;;;;5.90;3.50;;;;;;;7.22;79.38;101289.85;1756682;80;20942;-67
2021/11/23 09:15:42;;;;;;;6.33;3.80;;;;;;;7.23;79.06;101289.81;1756516;79;21233;-67
2021/11/23 09:18:10;;;;;;;9.78;3.80;;;;;;;7.22;78.99;101288.52;1773461;79;21409;-65
2021/11/23 09:20:37;;;;;;;7.37;3.27;;;;;;;7.20;79.52;101306.33;1777401;77;21147;-69
2021/11/23 09:23:09;;;;;;;9.48;3.98;;;;;;;7.07;79.62;101289.12;1748237;79;21167;-77
2021/11/23 09:25:37;;;;;;;7.60;3.52;;;;;;;7.00;80.21;101298.11;1758569;80;21282;-69
2021/11/23 09:28:04;;;;;;;5.67;3.27;;;;;;;6.98;79.58;101294.58;1783488;79;21097;-73
2021/11/23 09:30:31;;;;;;;3.50;2.62;;;;;;;6.95;79.21;101286.58;1746948;80;21092;-76
2021/11/23 09:32:59;;;;;;;7.00;3.33;;;;;;;6.93;79.49;101296.38;1753672;80;22319;-72
2021/11/23 09:35:27;;;;;;;5.47;3.30;;;;;;;6.94;78.60;101291.48;1749390;80;21675;-71
2021/11/23 09:37:55;;;;;;;4.70;2.85;;;;;;;6.97;78.47;101283.48;1741722;80;21060;-72
2021/11/23 09:40:22;;;;;;;5.20;3.08;;;;;;;6.98;78.47;101294.11;1753071;79;21041;-72
2021/11/23 09:42:50;;;;;;;6.08;2.70;;;;;;;6.96;77.92;101284.35;1760341;80;21008;-73
2021/11/23 09:45:17;;;;;;;4.97;3.00;;;;;;;6.99;77.60;101289.67;1758041;80;21528;-74
2021/11/23 09:47:44;;;;;;;6.05;3.10;;;;;;;7.03;77.32;101295.40;1759642;80;21127;-72
2021/11/23 09:50:11;;;;;;;6.92;4.05;;;;;;;7.09;77.57;101298.45;1748830;81;21601;-73
2021/11/23 09:52:40;;;;;;;20.15;6.58;;;;;;;7.14;78.33;101298.80;1747739;81;21025;-72
2021/11/23 09:55:11;;;;;;;10.32;4.50;;;;;;;7.17;78.80;101297.90;1719616;81;21081;-73
2021/11/23 09:57:39;;;;;;;8.15;3.90;;;;;;;7.14;79.15;101303.27;1745610;81;21922;-69
2021/11/23 10:00:14;;;;;;;8.63;4.55;;;;;;;7.05;78.87;101302.03;1749787;81;21064;-70
2021/11/23 10:02:41;;;;;;;8.20;3.95;;;;;;;6.98;79.35;101298.58;1732665;81;21086;-75
2021/11/23 10:05:15;;;;;;;7.78;4.20;;;;;;;6.90;79.54;101304.42;1756482;80;21095;-72
2021/11/23 10:07:44;;;;;;;21.00;7.65;;;;;;;6.81;79.79;101300.97;1738174;81;21700;-72
2021/11/23 10:10:21;;;;;;;8.48;4.28;;;;;;;6.76;80.60;101301.91;1745701;81;21685;-72
2021/11/23 10:12:57;;;;;;;10.35;4.78;;;;;;;6.79;80.92;101300.10;1746697;81;21510;-71
2021/11/23 10:15:34;;;;;;;14.63;5.42;;;;;;;6.86;80.90;101299.13;1743638;81;21180;-62
2021/11/23 10:18:24;;;;;;;6.80;4.12;;;;;;;6.95;81.19;101303.48;1747208;81;21080;-62
2021/11/23 10:20:56;;;;;;;7.15;3.90;;;;;;;7.05;80.71;101311.36;1747583;81;21095;-63
2021/11/23 10:23:34;;;;;;;7.55;4.60;;;;;;;7.05;80.09;101321.59;1748058;81;21161;-63
2021/11/23 10:26:19;;;;;;;8.85;4.53;;;;;;;6.97;79.92;101312.81;1749115;80;21130;-62
2021/11/23 10:28:56;;;;;;;9.33;4.30;;;;;;;6.84;80.57;101307.59;1745248;81;21103;-63
2021/11/23 10:31:30;;;;;;;6.75;3.80;;;;;;;6.71;81.30;101317.93;1746692;81;21142;-72
2021/11/23 10:34:02;;;;;;;7.50;4.28;;;;;;;6.57;81.56;101311.41;1745548;79;21072;-73
2021/11/23 10:36:32;;;;;;;6.85;4.35;;;;;;;6.49;82.73;101312.80;1748456;81;21783;-63
2021/11/23 10:39:14;;;;;;;5.85;3.85;;;;;;;6.44;83.36;101311.97;1751583;81;21439;-75
2021/11/23 10:41:43;;;;;;;7.78;4.40;;;;;;;6.41;83.74;101315.56;1752573;81;21378;-73
2021/11/23 10:44:28;;;;;;;6.70;4.12;;;;;;;6.34;84.43;101324.48;1745939;81;21561;-75
2021/11/23 10:46:58;;;;;;;9.43;5.00;;;;;;;6.24;84.41;101331.66;1749383;81;21552;-72
2021/11/23 10:49:33;;;;;;;10.80;4.47;;;;;;;6.12;85.42;101337.09;1776604;78;21134;-71
2021/11/23 10:52:00;;;;;;;5.58;3.58;;;;;;;6.01;85.99;101330.05;1797995;78;21087;-71
2021/11/23 10:54:33;;;;;;;5.87;3.95;;;;;;;5.98;86.47;101327.38;1797744;78;21473;-70
2021/11/23 10:57:09;;;;;;;14.43;6.03;;;;;;;5.97;86.92;101330.93;1777614;78;21123;-72
2021/11/23 10:59:38;;;;;;;12.58;4.80;;;;;;;6.03;86.65;101330.05;1799141;78;21512;-72
2021/11/23 11:02:06;;;;;;;4.47;2.80;;;;;;;6.09;87.23;101321.14;1778752;79;21109;-71
2021/11/23 11:04:35;;;;;;;5.03;2.95;;;;;;;6.12;85.29;101337.09;1779161;79;21473;-73
2021/11/23 11:07:04;;;;;;;5.72;2.90;;;;;;;6.05;84.21;101330.02;1776047;79;21033;-73
2021/11/23 11:09:34;;;;;;;5.08;3.58;;;;;;;5.94;83.84;101341.60;1771459;79;21143;-71
2021/11/23 11:12:04;;;;;;;7.22;4.50;;;;;;;5.84;84.76;101333.22;1774079;79;21443;-73
2021/11/23 11:14:35;;;;;;;12.37;5.75;;;;;;;5.76;87.23;101331.96;1781903;79;21387;-72
2021/11/23 11:17:07;;;;;;;16.07;6.40;;;;;;;5.71;88.71;101324.00;1775680;79;21571;-73
2021/11/23 11:19:48;;;;;;;19.57;7.67;;;;;;;5.70;89.07;101318.23;1775636;79;21071;-73
2021/11/23 11:22:18;;;;;;;14.10;6.05;;;;;;;5.69;89.50;101318.23;1770720;79;21118;-73
2021/11/23 11:25:07;;;;;;;7.15;4.10;;;;;;;5.68;89.57;101332.00;1771995;79;21071;-62
2021/11/23 11:27:37;;;;;;;8.33;4.67;;;;;;;5.61;88.30;101335.56;1745676;79;21178;-62
2021/11/23 11:30:31;;;;;;;8.10;3.80;;;;;;;5.61;88.30;101335.56;1773446;79;21302;-63